createdAt,value
2019-04-23T00:02:20.511Z,3.10
2019-04-23T00:04:53.059Z,2.97
2019-04-23T00:07:42.318Z,2.93
2019-04-23T00:10:06.640Z,3.07
2019-04-23T00:17:48.854Z,3.13
2019-04-23T00:20:12.922Z,2.90
2019-04-23T00:23:00.696Z,3.43
2019-04-23T00:25:51.127Z,3.23
2019-04-23T00:30:48.115Z,2.73
2019-04-23T00:33:21.741Z,3.40
2019-04-23T00:36:07.002Z,3.70
2019-04-23T00:40:55.703Z,3.53
2019-04-23T00:48:35.261Z,3.13
2019-04-23T00:51:09.967Z,3.30
2019-04-23T00:53:28.300Z,3.17
2019-04-23T00:56:21.952Z,3.47
2019-04-23T01:01:03.595Z,3.07
2019-04-23T01:03:47.012Z,3.30
2019-04-23T01:06:12.921Z,3.50
2019-04-23T01:08:47.666Z,3.37
2019-04-23T01:11:16.709Z,3.33
2019-04-23T01:13:50.929Z,3.13
2019-04-23T01:16:15.283Z,2.93
2019-04-23T01:18:53.998Z,3.83
2019-04-23T01:21:11.706Z,3.90
2019-04-23T01:23:57.826Z,3.93
2019-04-23T01:26:41.853Z,3.50
2019-04-23T01:29:23.070Z,4.10
2019-04-23T01:31:53.169Z,3.80
2019-04-23T01:34:28.007Z,3.93
2019-04-23T01:36:57.077Z,3.90
2019-04-23T01:39:24.454Z,4.20
2019-04-23T01:42:05.235Z,3.70
2019-04-23T01:44:37.469Z,4.10
2019-04-23T01:47:00.854Z,4.00
2019-04-23T01:49:45.231Z,3.70
2019-04-23T01:52:08.428Z,3.90
2019-04-23T01:54:38.621Z,4.20
2019-04-23T01:57:18.946Z,3.77
2019-04-23T01:59:49.435Z,3.80
2019-04-23T02:02:24.100Z,4.10
2019-04-23T02:04:45.089Z,3.87
2019-04-23T02:07:25.882Z,4.53
2019-04-23T02:09:55.553Z,3.90
2019-04-23T02:12:27.587Z,4.40
2019-04-23T02:14:59.515Z,3.97
2019-04-23T02:17:31.619Z,4.17
2019-04-23T02:20:02.579Z,4.17
2019-04-23T02:23:11.405Z,4.00
2019-04-23T02:25:44.339Z,4.57
2019-04-23T02:28:12.002Z,4.17
2019-04-23T02:38:31.921Z,4.47
2019-04-23T02:41:04.721Z,4.60
2019-04-23T02:46:02.506Z,4.00
2019-04-23T02:48:36.169Z,4.43
2019-04-23T02:50:57.398Z,4.30
2019-04-23T02:53:44.754Z,4.10
2019-04-23T03:01:21.965Z,4.57
2019-04-23T03:09:04.447Z,4.70
2019-04-23T03:11:25.862Z,5.17
2019-04-23T03:13:57.407Z,5.10
2019-04-23T03:16:45.483Z,4.70
2019-04-23T03:19:38.426Z,4.53
2019-04-23T03:22:35.835Z,4.80
2019-04-23T03:25:10.254Z,4.90
2019-04-23T03:27:33.989Z,5.10
2019-04-23T03:34:42.533Z,4.47
2019-04-23T03:36:24.888Z,4.77
2019-04-23T03:37:46.803Z,4.97
2019-04-23T03:42:49.260Z,4.83
2019-04-23T03:45:36.919Z,5.03
2019-04-23T03:47:56.180Z,5.50
2019-04-23T03:52:57.247Z,5.77
2019-04-23T03:55:37.413Z,5.20
2019-04-23T03:58:05.061Z,5.87
2019-04-23T04:03:27.838Z,5.47
2019-04-23T04:13:15.752Z,5.70
2019-04-23T04:18:38.665Z,5.70
2019-04-23T04:26:00.769Z,5.60
2019-04-23T04:28:47.178Z,5.37
2019-04-23T04:30:54.273Z,5.60
2019-04-23T04:33:58.471Z,5.33
2019-04-23T04:36:14.362Z,5.00
2019-04-23T04:38:39.965Z,5.23
2019-04-23T04:41:29.106Z,4.70
2019-04-23T04:43:50.744Z,5.10
2019-04-23T04:51:18.870Z,4.70
2019-04-23T04:56:21.353Z,5.10
2019-04-23T05:03:43.764Z,4.50
2019-04-23T05:06:37.986Z,4.90
2019-04-23T05:14:00.319Z,4.93
2019-04-23T05:16:27.603Z,4.50
2019-04-23T05:19:24.402Z,4.17
2019-04-23T05:26:46.539Z,4.37
2019-04-23T05:29:11.912Z,4.80
2019-04-23T05:31:32.960Z,5.10
2019-04-23T05:34:08.107Z,4.70
2019-04-23T05:36:49.820Z,4.53
2019-04-23T05:39:21.524Z,4.53
2019-04-23T05:41:45.614Z,4.57
2019-04-23T05:44:27.899Z,4.67
2019-04-23T05:46:55.834Z,4.60
2019-04-23T05:49:26.094Z,4.80
2019-04-23T05:51:55.191Z,4.90
2019-04-23T05:54:29.925Z,4.70
2019-04-23T05:56:56.984Z,4.78
2019-04-23T05:59:30.041Z,5.15
2019-04-23T06:02:07.614Z,5.08
2019-04-23T06:07:26.348Z,4.90
2019-04-23T06:09:41.774Z,5.55
2019-04-23T06:17:27.592Z,5.50
2019-04-23T06:19:52.565Z,6.13
2019-04-23T06:22:22.367Z,5.40
2019-04-23T06:24:55.067Z,5.50
2019-04-23T06:29:57.010Z,5.80
2019-04-23T06:32:26.079Z,4.85
2019-04-23T06:34:56.574Z,5.58
2019-04-23T06:40:00.380Z,6.15
2019-04-23T06:42:35.530Z,5.62
2019-04-23T06:45:10.445Z,5.50
2019-04-23T06:47:45.119Z,5.80
2019-04-23T06:50:17.687Z,5.80
2019-04-23T06:52:39.804Z,6.03
2019-04-23T06:57:47.844Z,5.57
2019-04-23T07:00:23.956Z,6.03
2019-04-23T07:02:53.825Z,6.00
2019-04-23T07:05:23.707Z,5.87
2019-04-23T07:08:02.753Z,5.80
2019-04-23T07:10:33.357Z,6.83
2019-04-23T07:13:08.889Z,6.47
2019-04-23T07:15:38.068Z,5.93
2019-04-23T07:18:03.966Z,6.53
2019-04-23T07:20:33.624Z,6.30
2019-04-23T07:23:14.123Z,5.93
2019-04-23T07:25:40.400Z,6.40
2019-04-23T07:28:14.582Z,5.80
2019-04-23T07:30:51.156Z,6.10
2019-04-23T07:33:18.659Z,5.43
2019-04-23T07:35:52.939Z,5.50
2019-04-23T07:38:55.030Z,5.25
2019-04-23T07:41:46.616Z,5.20
2019-04-23T07:44:36.855Z,5.47
2019-04-23T07:47:16.278Z,5.93
2019-04-23T07:49:56.058Z,5.87
2019-04-23T07:52:20.130Z,6.03
2019-04-23T07:54:49.211Z,5.90
2019-04-23T08:00:00.710Z,6.00
2019-04-23T08:05:00.883Z,5.53
2019-04-23T08:07:29.664Z,5.57
2019-04-23T08:10:02.356Z,5.33
2019-04-23T08:12:31.703Z,5.23
2019-04-23T08:15:07.460Z,5.03
2019-04-23T08:17:28.115Z,5.03
2019-04-23T08:20:07.930Z,5.83
2019-04-23T08:22:40.819Z,5.30
2019-04-23T08:25:12.445Z,5.13
2019-04-23T08:27:49.977Z,5.30
2019-04-23T08:30:15.875Z,5.73
2019-04-23T08:32:52.197Z,5.47
2019-04-23T08:35:23.229Z,5.30
2019-04-23T08:40:28.680Z,5.43
2019-04-23T08:43:03.505Z,5.50
2019-04-23T08:45:35.502Z,5.30
2019-04-23T08:48:21.741Z,5.03
2019-04-23T08:58:30.128Z,5.70
2019-04-23T09:00:59.124Z,5.37
2019-04-23T09:03:39.641Z,4.97
2019-04-23T09:06:06.321Z,4.83
2019-04-23T09:08:32.812Z,4.90
2019-04-23T09:11:27.450Z,4.87
2019-04-23T09:16:08.665Z,4.73
2019-04-23T09:18:37.104Z,5.03
2019-04-23T09:21:14.168Z,5.23
2019-04-23T09:23:46.813Z,5.50
2019-04-23T09:26:21.894Z,4.80
2019-04-23T09:28:53.335Z,4.72
2019-04-23T09:34:42.946Z,5.90
2019-04-23T09:37:35.135Z,5.20
2019-04-23T09:40:31.917Z,5.70
2019-04-23T09:50:52.328Z,4.83
2019-04-23T09:55:46.833Z,6.43
2019-04-23T09:58:16.746Z,5.83
2019-04-23T10:01:20.509Z,5.03
2019-04-23T10:03:32.987Z,5.33
2019-04-23T10:06:01.906Z,5.93
2019-04-23T10:08:31.230Z,5.43
2019-04-23T10:10:55.708Z,5.30
2019-04-23T10:13:27.342Z,5.83
2019-04-23T10:15:58.152Z,5.63
2019-04-23T10:18:29.084Z,6.33
2019-04-23T10:20:59.394Z,5.83
2019-04-23T10:23:31.449Z,6.17
2019-04-23T10:26:01.981Z,5.80
2019-04-23T10:28:38.039Z,5.97
2019-04-23T10:31:09.050Z,5.27
2019-04-23T10:33:39.959Z,5.62
2019-04-23T10:36:13.676Z,5.40
2019-04-23T10:38:54.004Z,5.05
2019-04-23T10:41:14.228Z,5.20
2019-04-23T10:43:48.768Z,5.62
2019-04-23T10:46:53.617Z,5.90
2019-04-23T10:49:47.732Z,5.47
2019-04-23T10:52:13.303Z,5.75
2019-04-23T10:54:41.392Z,5.65
2019-04-23T10:57:11.233Z,5.60
2019-04-23T10:59:43.074Z,5.47
2019-04-23T11:12:44.872Z,4.87
2019-04-23T11:15:32.465Z,4.97
2019-04-23T11:20:40.075Z,4.62
2019-04-23T11:28:06.918Z,3.80
2019-04-23T11:30:46.427Z,3.75
2019-04-23T11:33:14.683Z,3.72
2019-04-23T11:38:43.595Z,4.30
2019-04-23T11:40:44.805Z,3.90
2019-04-23T11:43:28.489Z,3.85
2019-04-23T11:45:57.107Z,3.42
2019-04-23T11:51:30.237Z,3.62
2019-04-23T11:53:35.602Z,3.47
2019-04-23T11:58:39.271Z,3.50
2019-04-23T12:01:37.418Z,4.05
2019-04-23T12:06:44.454Z,3.50
2019-04-23T12:12:13.334Z,3.98
2019-04-23T12:22:23.516Z,4.03
2019-04-23T12:25:09.377Z,3.70
2019-04-23T12:40:31.885Z,3.75
2019-04-23T12:43:05.741Z,4.00
2019-04-23T12:45:36.312Z,4.30
2019-04-23T12:50:50.203Z,4.50
2019-04-23T12:53:19.917Z,4.60
2019-04-23T12:58:17.819Z,4.03
2019-04-23T13:00:39.958Z,4.30
2019-04-23T13:05:42.234Z,4.70
2019-04-23T13:08:33.736Z,3.55
2019-04-23T13:10:50.154Z,4.25
2019-04-23T13:16:06.399Z,4.10
2019-04-23T13:18:33.906Z,4.58
2019-04-23T13:21:17.812Z,4.33
2019-04-23T13:23:34.852Z,4.72
2019-04-23T13:26:17.803Z,4.30
2019-04-23T13:28:37.579Z,4.67
2019-04-23T13:31:10.513Z,4.83
2019-04-23T13:33:45.485Z,4.53
2019-04-23T13:36:29.629Z,4.20
2019-04-23T13:38:47.304Z,5.00
2019-04-23T13:41:30.200Z,5.20
2019-04-23T13:44:03.821Z,4.80
2019-04-23T13:46:33.108Z,4.37
2019-04-23T13:48:52.573Z,4.78
2019-04-23T13:54:08.205Z,5.08
2019-04-23T13:59:30.294Z,4.87
2019-04-23T14:01:54.444Z,4.93
2019-04-23T14:06:49.495Z,5.50
2019-04-23T14:09:41.322Z,5.22
2019-04-23T14:11:51.845Z,5.03
2019-04-23T14:14:41.786Z,5.70
2019-04-23T14:17:19.787Z,4.45
2019-04-23T14:19:35.725Z,5.12
2019-04-23T14:24:53.259Z,4.22
2019-04-23T14:27:18.069Z,4.58
2019-04-23T14:29:50.330Z,5.33
2019-04-23T14:32:42.685Z,4.37
2019-04-23T14:34:54.339Z,4.92
2019-04-23T14:37:18.209Z,5.62
2019-04-23T14:39:54.206Z,4.92
2019-04-23T14:42:37.399Z,5.50
2019-04-23T14:45:13.567Z,4.62
2019-04-23T14:48:00.929Z,4.35
2019-04-23T14:50:23.999Z,4.45
2019-04-23T14:52:38.201Z,4.37
2019-04-23T15:00:17.597Z,5.25
2019-04-23T15:03:08.760Z,4.60
2019-04-23T15:05:17.133Z,4.83
2019-04-23T15:07:51.316Z,5.28
2019-04-23T15:12:54.014Z,5.35
2019-04-23T15:17:55.682Z,5.20
2019-04-23T15:20:30.626Z,5.40
2019-04-23T15:23:25.583Z,5.00
2019-04-23T15:25:53.018Z,4.95
2019-04-23T15:30:35.475Z,5.65
2019-04-23T15:33:18.530Z,5.50
2019-04-23T15:36:13.058Z,4.83
2019-04-23T15:38:33.919Z,4.67
2019-04-23T15:40:53.333Z,4.97
2019-04-23T15:43:22.914Z,5.05
2019-04-23T15:45:52.151Z,4.90
2019-04-23T15:48:22.479Z,5.15
2019-04-23T15:51:06.275Z,5.40
2019-04-23T15:53:24.344Z,5.17
2019-04-23T15:56:15.989Z,4.62
2019-04-23T15:58:54.152Z,4.90
2019-04-23T16:01:27.139Z,5.08
2019-04-23T16:03:20.577Z,5.62
2019-04-23T16:05:52.970Z,4.95
2019-04-23T16:09:04.827Z,5.20
2019-04-23T16:16:37.378Z,5.22
2019-04-23T16:19:19.238Z,4.75
2019-04-23T16:27:01.277Z,5.30
2019-04-23T16:29:38.044Z,4.33
2019-04-23T16:32:22.799Z,4.87
2019-04-23T16:34:54.420Z,4.40
2019-04-23T16:37:26.456Z,5.40
2019-04-23T16:40:07.304Z,5.50
2019-04-23T16:42:29.638Z,5.53
2019-04-23T16:47:36.618Z,5.20
2019-04-23T16:50:31.054Z,5.30
2019-04-23T16:52:32.765Z,5.57
2019-04-23T16:55:24.224Z,5.77
2019-04-23T16:57:57.386Z,5.37
2019-04-23T17:00:25.983Z,5.83
2019-04-23T17:03:02.674Z,5.03
2019-04-23T17:05:23.686Z,5.30
2019-04-23T17:08:06.741Z,5.15
2019-04-23T17:10:29.483Z,5.17
2019-04-23T17:13:04.740Z,5.33
2019-04-23T17:18:01.742Z,5.40
2019-04-23T17:23:16.888Z,5.63
2019-04-23T17:25:34.462Z,5.42
2019-04-23T17:28:21.953Z,5.30
2019-04-23T17:41:31.160Z,5.53
2019-04-23T17:44:09.531Z,5.03
2019-04-23T17:46:39.140Z,4.77
2019-04-23T17:49:04.528Z,5.40
2019-04-23T17:51:37.759Z,6.23
2019-04-23T17:54:24.753Z,5.10
2019-04-23T17:59:22.456Z,6.03
2019-04-23T18:01:57.081Z,5.53
2019-04-23T18:04:27.199Z,5.73
2019-04-23T18:06:56.040Z,5.37
2019-04-23T18:09:27.541Z,5.60
2019-04-23T18:14:16.577Z,5.27
2019-04-23T18:17:11.462Z,5.03
2019-04-23T18:19:32.011Z,5.13
2019-04-23T18:25:13.501Z,5.77
2019-04-23T18:27:41.851Z,5.67
2019-04-23T18:30:49.629Z,5.63
2019-04-23T18:38:25.630Z,5.70
2019-04-23T18:40:58.900Z,5.70
2019-04-23T18:51:03.396Z,6.10
2019-04-23T18:56:09.248Z,6.07
2019-04-23T18:58:49.241Z,5.70
2019-04-23T19:06:38.320Z,5.97
2019-04-23T19:09:47.181Z,6.03
2019-04-23T19:12:34.798Z,5.87
2019-04-23T19:15:07.504Z,5.70
2019-04-23T19:20:00.575Z,5.90
2019-04-23T19:22:36.355Z,6.60
2019-04-23T19:25:05.793Z,6.13
2019-04-23T19:27:41.318Z,6.80
2019-04-23T19:30:46.640Z,6.20
2019-04-23T19:33:21.856Z,6.27
2019-04-23T19:38:21.396Z,7.07
2019-04-23T19:41:00.246Z,6.60
2019-04-23T19:43:26.487Z,5.83
2019-04-23T19:46:00.915Z,6.57
2019-04-23T19:48:34.311Z,6.70
2019-04-23T19:51:02.676Z,6.53
2019-04-23T19:53:43.667Z,7.00
2019-04-23T20:03:43.438Z,6.90
2019-04-23T20:06:27.285Z,7.30
2019-04-23T20:09:09.955Z,7.60
2019-04-23T20:11:13.444Z,7.00
2019-04-23T20:14:11.641Z,6.93
2019-04-23T20:16:49.083Z,7.13
2019-04-23T20:19:18.491Z,6.90
2019-04-23T20:21:50.851Z,7.40
2019-04-23T20:24:28.297Z,7.63
2019-04-23T20:26:59.859Z,7.07
2019-04-23T20:35:06.976Z,7.07
2019-04-23T20:42:37.227Z,8.00
2019-04-23T20:45:07.217Z,7.10
2019-04-23T20:47:40.456Z,7.33
2019-04-23T20:49:58.900Z,7.17
2019-04-23T20:52:43.087Z,7.50
2019-04-23T20:55:19.510Z,7.10
2019-04-23T20:57:55.334Z,8.23
2019-04-23T21:00:23.377Z,7.03
2019-04-23T21:03:25.875Z,7.00
2019-04-23T21:05:33.077Z,7.40
2019-04-23T21:08:33.211Z,7.77
2019-04-23T21:15:52.999Z,7.67
2019-04-23T21:18:21.971Z,7.50
2019-04-23T21:20:50.065Z,7.97
2019-04-23T21:23:19.350Z,7.87
2019-04-23T21:25:52.632Z,8.07
2019-04-23T21:28:40.048Z,8.20
2019-04-23T21:31:19.718Z,7.90
2019-04-23T21:33:44.305Z,8.67
2019-04-23T21:36:43.035Z,7.70
2019-04-23T21:39:38.648Z,7.80
2019-04-23T21:42:21.205Z,8.10
2019-04-23T21:44:32.416Z,8.67
2019-04-23T21:47:27.302Z,8.27
2019-04-23T21:49:57.999Z,7.53
2019-04-23T21:52:11.526Z,7.83
2019-04-23T21:54:51.620Z,7.70
2019-04-23T21:57:29.713Z,8.13
2019-04-23T21:59:50.590Z,8.33
2019-04-23T22:02:21.707Z,8.67
2019-04-23T22:05:10.811Z,8.03
2019-04-23T22:07:42.010Z,9.00
2019-04-23T22:09:59.165Z,8.40
2019-04-23T22:12:34.181Z,8.33
2019-04-23T22:14:57.368Z,7.83
2019-04-23T22:20:09.469Z,7.30
2019-04-23T22:22:51.224Z,8.20
2019-04-23T22:25:18.596Z,7.83
2019-04-23T22:27:42.694Z,8.13
2019-04-23T22:30:12.911Z,7.93
2019-04-23T22:32:56.350Z,7.97
2019-04-23T22:35:10.737Z,8.43
2019-04-23T22:37:59.022Z,7.60
2019-04-23T22:40:19.650Z,8.20
2019-04-23T22:43:09.517Z,7.93
2019-04-23T22:45:26.466Z,8.33
2019-04-23T22:48:04.650Z,8.10
2019-04-23T22:50:31.683Z,7.40
2019-04-23T22:53:02.035Z,6.87
2019-04-23T22:55:36.721Z,7.00
2019-04-23T23:00:46.701Z,7.83
2019-04-23T23:03:27.703Z,8.23
2019-04-23T23:08:31.247Z,8.90
2019-04-23T23:13:42.124Z,7.23
2019-04-23T23:16:07.098Z,6.83
2019-04-23T23:18:32.215Z,8.63
2019-04-23T23:21:07.935Z,7.80
2019-04-23T23:23:40.791Z,8.30
2019-04-23T23:26:14.246Z,8.70
2019-04-23T23:28:41.002Z,8.53
2019-04-23T23:31:13.806Z,8.60
2019-04-23T23:33:47.134Z,8.47
2019-04-23T23:36:19.892Z,8.43
2019-04-23T23:39:00.367Z,7.10
2019-04-23T23:41:43.072Z,7.87
2019-04-23T23:44:18.077Z,7.60
2019-04-23T23:46:50.556Z,8.77
2019-04-23T23:49:08.308Z,7.87
2019-04-23T23:51:59.973Z,8.70
2019-04-23T23:59:13.089Z,8.37
